Stephen R Warden — WDC6523 — position and weather

sailwx.info

Track history (hours):
 
Tides and Currents Weather Stations Pressure Air Temp Water Temp Dewpoint Dewpoint Depression Visibility Wind Speed Wind Dir Waves Ship Positions

Stephen R Warden

Owner: American Commercial Lines LLC, Jeffersonvile, IN. More information available from US FCC via Universal Licensing System and Coast Guard Vessel Documentation Center.

Last reported at 2014-Oct-30 07:04 UTC. Time now 2014-Oct-30 19:07 UTC.
Position N 30°01' W 090°47'.

Length 37 m; draft 3 m.

Type: Towing. MMSI: 367057460.

Date/timePositionNaut miles runAvg speedWind from/ knotsBaromVisibWave heightAir tempDewpointWater temp
2014-Oct-30 07:04N 30°01' W 090°47'8 4.8
2014-Oct-30 05:26N 30°05' W 090°54'0 0.1
2014-Oct-30 04:15N 30°05' W 090°55'10 0.6
2014-Oct-29 12:33N 30°01' W 090°44'0 0.0
2014-Oct-29 11:33N 30°01' W 090°44'0 0.0
2014-Oct-29 10:33N 30°01' W 090°44'0 0.1
2014-Oct-29 09:33N 30°01' W 090°44'7 3.7
2014-Oct-29 07:32N 30°04' W 090°52'0 0.0
2014-Oct-29 06:32N 30°04' W 090°52'6 1.9
2014-Oct-29 03:31N 29°59' W 090°49'33 1.0
2014-Oct-27 18:33N 29°57' W 090°10'2 2.1
2014-Oct-27 17:28N 29°55' W 090°08'3 3.6
2014-Oct-27 16:33N 29°55' W 090°04'3 2.8
2014-Oct-27 15:33N 29°57' W 090°02'3 2.6
2014-Oct-27 14:32N 29°56' W 089°60'1 0.7
2014-Oct-27 13:33N 29°56' W 089°59'0 0.0
2014-Oct-27 12:29N 29°56' W 089°59'18 0.8
2014-Oct-26 14:28N 29°38' W 089°55'18 3.4
2014-Oct-26 09:10N 29°56' W 089°59'4 6.3
2014-Oct-26 08:32N 29°57' W 090°04'39 2.2
2014-Oct-25 15:13N 29°59' W 090°48'5 5.9
2014-Oct-25 14:21N 30°04' W 090°51'3 1.6
2014-Oct-25 12:33N 30°05' W 090°55'1 1.3
2014-Oct-25 11:33N 30°06' W 090°55'2 1.9
2014-Oct-25 10:32N 30°08' W 090°56'2 2.0
2014-Oct-25 09:28N 30°07' W 090°58'1 0.0
2014-Oct-24 15:03N 30°07' W 090°57'2 2.4
2014-Oct-24 14:21N 30°08' W 090°55'3 3.9
2014-Oct-24 13:29N 30°04' W 090°54'4 3.3
2014-Oct-24 12:23N 30°03' W 090°51'3 3.7
2014-Oct-24 11:33N 29°60' W 090°50'3 2.6
2014-Oct-24 10:33N 30°00' W 090°47'1 0.6
2014-Oct-24 08:24N 30°01' W 090°46'1 1.4
2014-Oct-24 07:33N 30°01' W 090°44'2 2.3
2014-Oct-24 06:33N 30°02' W 090°42'4 3.4
2014-Oct-24 05:19N 30°02' W 090°37'2 1.9
2014-Oct-24 04:08N 30°03' W 090°35'1 0.4
2014-Oct-24 02:32N 30°03' W 090°34'31 1.4
2014-Oct-23 04:33N 29°56' W 089°59'0 0.0
2014-Oct-23 00:27N 29°56' W 089°59'0 0.0
2014-Oct-22 23:31N 29°56' W 089°59'17 1.5
2014-Oct-22 12:20N 29°39' W 089°57'21 1.0
2014-Oct-21 14:23N 29°55' W 090°13'5 4.6
2014-Oct-21 13:14N 29°57' W 090°18'2 3.4
2014-Oct-21 12:33N 29°56' W 090°21'3 3.3
2014-Oct-21 11:33N 29°59' W 090°24'8 1.1
2014-Oct-21 04:19N 30°03' W 090°31'4 5.3
2014-Oct-21 03:31N 30°02' W 090°36'6 5.1
2014-Oct-21 02:19N 30°01' W 090°43'2 0.1
2014-Oct-20 09:31N 30°01' W 090°46'0 0.0
2014-Oct-20 07:19N 30°01' W 090°46'  
Track history (hours):
 
Tides and Currents Weather Stations Pressure Air Temp Water Temp Dewpoint Dewpoint Depression Visibility Wind Speed Wind Dir Waves Ship Positions

Stephen R Warden

Owner: American Commercial Lines LLC, Jeffersonvile, IN. More information available from US FCC via Universal Licensing System and Coast Guard Vessel Documentation Center.

Last reported at 2014-Oct-30 07:04 UTC. Time now 2014-Oct-30 19:07 UTC.
Position N 30°01' W 090°47'.

Length 37 m; draft 3 m.

Type: Towing. MMSI: 367057460.

Date/timePositionNaut miles runAvg speedWind from/ knotsBaromVisibWave heightAir tempDewpointWater temp
2014-Oct-30 07:04N 30°01' W 090°47'8 4.8
2014-Oct-30 05:26N 30°05' W 090°54'0 0.1
2014-Oct-30 04:15N 30°05' W 090°55'10 0.6
2014-Oct-29 12:33N 30°01' W 090°44'0 0.0
2014-Oct-29 11:33N 30°01' W 090°44'0 0.0
2014-Oct-29 10:33N 30°01' W 090°44'0 0.1
2014-Oct-29 09:33N 30°01' W 090°44'7 3.7
2014-Oct-29 07:32N 30°04' W 090°52'0 0.0
2014-Oct-29 06:32N 30°04' W 090°52'6 1.9
2014-Oct-29 03:31N 29°59' W 090°49'33 1.0
2014-Oct-27 18:33N 29°57' W 090°10'2 2.1
2014-Oct-27 17:28N 29°55' W 090°08'3 3.6
2014-Oct-27 16:33N 29°55' W 090°04'3 2.8
2014-Oct-27 15:33N 29°57' W 090°02'3 2.6
2014-Oct-27 14:32N 29°56' W 089°60'1 0.7
2014-Oct-27 13:33N 29°56' W 089°59'0 0.0
2014-Oct-27 12:29N 29°56' W 089°59'18 0.8
2014-Oct-26 14:28N 29°38' W 089°55'18 3.4
2014-Oct-26 09:10N 29°56' W 089°59'4 6.3
2014-Oct-26 08:32N 29°57' W 090°04'39 2.2
2014-Oct-25 15:13N 29°59' W 090°48'5 5.9
2014-Oct-25 14:21N 30°04' W 090°51'3 1.6
2014-Oct-25 12:33N 30°05' W 090°55'1 1.3
2014-Oct-25 11:33N 30°06' W 090°55'2 1.9
2014-Oct-25 10:32N 30°08' W 090°56'2 2.0
2014-Oct-25 09:28N 30°07' W 090°58'1 0.0
2014-Oct-24 15:03N 30°07' W 090°57'2 2.4
2014-Oct-24 14:21N 30°08' W 090°55'3 3.9
2014-Oct-24 13:29N 30°04' W 090°54'4 3.3
2014-Oct-24 12:23N 30°03' W 090°51'3 3.7
2014-Oct-24 11:33N 29°60' W 090°50'3 2.6
2014-Oct-24 10:33N 30°00' W 090°47'1 0.6
2014-Oct-24 08:24N 30°01' W 090°46'1 1.4
2014-Oct-24 07:33N 30°01' W 090°44'2 2.3
2014-Oct-24 06:33N 30°02' W 090°42'4 3.4
2014-Oct-24 05:19N 30°02' W 090°37'2 1.9
2014-Oct-24 04:08N 30°03' W 090°35'1 0.4
2014-Oct-24 02:32N 30°03' W 090°34'31 1.4
2014-Oct-23 04:33N 29°56' W 089°59'0 0.0
2014-Oct-23 00:27N 29°56' W 089°59'0 0.0
2014-Oct-22 23:31N 29°56' W 089°59'17 1.5
2014-Oct-22 12:20N 29°39' W 089°57'21 1.0
2014-Oct-21 14:23N 29°55' W 090°13'5 4.6
2014-Oct-21 13:14N 29°57' W 090°18'2 3.4
2014-Oct-21 12:33N 29°56' W 090°21'3 3.3
2014-Oct-21 11:33N 29°59' W 090°24'8 1.1
2014-Oct-21 04:19N 30°03' W 090°31'4 5.3
2014-Oct-21 03:31N 30°02' W 090°36'6 5.1
2014-Oct-21 02:19N 30°01' W 090°43'2 0.1
2014-Oct-20 09:31N 30°01' W 090°46'0 0.0
2014-Oct-20 07:19N 30°01' W 090°46'  

Dump ship's entire track history